Emslake — V2FL4 — position and weather

sailwx.info

Track history (hours):
 
Tides and Currents Weather Stations Pressure Air Temp Water Temp Dewpoint Dewpoint Depression Visibility Wind Speed Wind Dir Waves Ship Positions

Emslake

Last reported at 2015-Aug-01 00:30 UTC. Time now 2015-Aug-01 01:30 UTC.
Position N 52°58' E 000°18'.

Length 100 m; draft 5.9 m.

Type: Cargo ship. MMSI: 305712000.

Date/timePositionNaut miles runAvg speedWind from/ knotsBaromVisibWave heightAir tempDewpointWater temp
2015-Aug-01 00:30N 52°58' E 000°18'24 1.2
2015-Jul-31 05:09N 53°19' E 000°39'314 7.5
2015-Jul-29 11:29N 56°43' E 007°35'7 7.7
2015-Jul-29 10:31N 56°49' E 007°44'7 7.6
2015-Jul-29 09:32N 56°54' E 007°53'92 7.6
2015-Jul-28 21:23N 57°45' E 010°15'7 7.9
2015-Jul-28 20:33N 57°46' E 010°27'8 8.0
2015-Jul-28 19:33N 57°48' E 010°42'7 7.4
2015-Jul-28 18:33N 57°44' E 010°54'9 8.5
2015-Jul-28 17:33N 57°39' E 011°05'8 8.2
2015-Jul-28 16:34N 57°33' E 011°17'8 7.7
2015-Jul-28 15:34N 57°28' E 011°27'8 8.1
2015-Jul-28 14:33N 57°20' E 011°32'8 7.9
2015-Jul-28 13:33N 57°12' E 011°37'8 8.3
2015-Jul-28 12:33N 57°05' E 011°42'8 8.2
2015-Jul-28 11:33N 56°57' E 011°47'8 8.4
2015-Jul-28 10:33N 56°49' E 011°52'9 8.7
2015-Jul-28 09:33N 56°41' E 011°57'8 8.1
2015-Jul-28 08:33N 56°33' E 011°59'9 8.4
2015-Jul-28 07:31N 56°24' E 012°03'8 7.8
2015-Jul-28 06:33N 56°17' E 012°08'8 8.5
2015-Jul-28 05:34N 56°12' E 012°20'1010.2
2015-Jul-28 04:34N 56°06' E 012°35'10 9.8
2015-Jul-28 03:34N 55°57' E 012°43'10 9.5
2015-Jul-28 02:34N 55°48' E 012°43'9 9.1
2015-Jul-28 01:34N 55°39' E 012°42'9 8.8
2015-Jul-28 00:34N 55°30' E 012°43'8 8.5
2015-Jul-27 23:34N 55°21' E 012°41'7 7.1
2015-Jul-27 22:34N 55°16' E 012°50'8 7.8
2015-Jul-27 21:33N 55°15' E 013°04'8 8.0
2015-Jul-27 20:34N 55°15' E 013°18'8 8.2
2015-Jul-27 19:33N 55°14' E 013°32'8 8.0
2015-Jul-27 18:33N 55°14' E 013°46'8 8.2
2015-Jul-27 17:33N 55°14' E 014°01'9 8.5
2015-Jul-27 16:33N 55°13' E 014°15'8 8.1
2015-Jul-27 15:33N 55°19' E 014°25'8 8.4
2015-Jul-27 14:33N 55°25' E 014°35'8 8.2
2015-Jul-27 13:33N 55°30' E 014°47'8 8.3
2015-Jul-27 12:33N 55°34' E 014°59'8 8.0
2015-Jul-27 11:33N 55°38' E 015°12'8 7.9
2015-Jul-27 10:33N 55°42' E 015°24'24 8.0
2015-Jul-27 07:33N 55°54' E 016°00'10 8.3
2015-Jul-27 06:22N 55°59' E 016°16'82 7.5
2015-Jul-26 19:32N 57°10' E 017°28'7 6.8
2015-Jul-26 18:33N 57°16' E 017°33'  
Track history (hours):
 
Tides and Currents Weather Stations Pressure Air Temp Water Temp Dewpoint Dewpoint Depression Visibility Wind Speed Wind Dir Waves Ship Positions

Emslake

Last reported at 2015-Aug-01 00:30 UTC. Time now 2015-Aug-01 01:30 UTC.
Position N 52°58' E 000°18'.

Length 100 m; draft 5.9 m.

Type: Cargo ship. MMSI: 305712000.

Date/timePositionNaut miles runAvg speedWind from/ knotsBaromVisibWave heightAir tempDewpointWater temp
2015-Aug-01 00:30N 52°58' E 000°18'24 1.2
2015-Jul-31 05:09N 53°19' E 000°39'314 7.5
2015-Jul-29 11:29N 56°43' E 007°35'7 7.7
2015-Jul-29 10:31N 56°49' E 007°44'7 7.6
2015-Jul-29 09:32N 56°54' E 007°53'92 7.6
2015-Jul-28 21:23N 57°45' E 010°15'7 7.9
2015-Jul-28 20:33N 57°46' E 010°27'8 8.0
2015-Jul-28 19:33N 57°48' E 010°42'7 7.4
2015-Jul-28 18:33N 57°44' E 010°54'9 8.5
2015-Jul-28 17:33N 57°39' E 011°05'8 8.2
2015-Jul-28 16:34N 57°33' E 011°17'8 7.7
2015-Jul-28 15:34N 57°28' E 011°27'8 8.1
2015-Jul-28 14:33N 57°20' E 011°32'8 7.9
2015-Jul-28 13:33N 57°12' E 011°37'8 8.3
2015-Jul-28 12:33N 57°05' E 011°42'8 8.2
2015-Jul-28 11:33N 56°57' E 011°47'8 8.4
2015-Jul-28 10:33N 56°49' E 011°52'9 8.7
2015-Jul-28 09:33N 56°41' E 011°57'8 8.1
2015-Jul-28 08:33N 56°33' E 011°59'9 8.4
2015-Jul-28 07:31N 56°24' E 012°03'8 7.8
2015-Jul-28 06:33N 56°17' E 012°08'8 8.5
2015-Jul-28 05:34N 56°12' E 012°20'1010.2
2015-Jul-28 04:34N 56°06' E 012°35'10 9.8
2015-Jul-28 03:34N 55°57' E 012°43'10 9.5
2015-Jul-28 02:34N 55°48' E 012°43'9 9.1
2015-Jul-28 01:34N 55°39' E 012°42'9 8.8
2015-Jul-28 00:34N 55°30' E 012°43'8 8.5
2015-Jul-27 23:34N 55°21' E 012°41'7 7.1
2015-Jul-27 22:34N 55°16' E 012°50'8 7.8
2015-Jul-27 21:33N 55°15' E 013°04'8 8.0
2015-Jul-27 20:34N 55°15' E 013°18'8 8.2
2015-Jul-27 19:33N 55°14' E 013°32'8 8.0
2015-Jul-27 18:33N 55°14' E 013°46'8 8.2
2015-Jul-27 17:33N 55°14' E 014°01'9 8.5
2015-Jul-27 16:33N 55°13' E 014°15'8 8.1
2015-Jul-27 15:33N 55°19' E 014°25'8 8.4
2015-Jul-27 14:33N 55°25' E 014°35'8 8.2
2015-Jul-27 13:33N 55°30' E 014°47'8 8.3
2015-Jul-27 12:33N 55°34' E 014°59'8 8.0
2015-Jul-27 11:33N 55°38' E 015°12'8 7.9
2015-Jul-27 10:33N 55°42' E 015°24'24 8.0
2015-Jul-27 07:33N 55°54' E 016°00'10 8.3
2015-Jul-27 06:22N 55°59' E 016°16'82 7.5
2015-Jul-26 19:32N 57°10' E 017°28'7 6.8
2015-Jul-26 18:33N 57°16' E 017°33'  

Dump ship's entire track history